Villa North, Indiana
Current Conditions -  °F | °C
As of 2:55 PM on Monday 22 Dec 2014 (Local Time) from KHHG Reporting Station
Overcast Overcast  
Wind Chill: 32°   Ceiling: 1900
Heat Index: 37°   Visibility: 7mi
Dew Point: 34°   Wind: 6mph
Humidity: 90%   Direction: 100°E
Pressure: 29.83"   Gusts: NA
Location:  40.7175°N, 85.1549°W
Report Text: KHHG 221955Z AUTO 10005KT 7SM SCT014 OVC019 03/01 A2983 RMK AO2 T00250010
Loading
Personal Weather Stations






























Interactive Weather Map New forecast layout! Learn more

10-Day Weather Forecast

Advertisements
Track Severe Weather on mobile